Time;durP1;ratioP1;P1;durP2;ratioP2;P2;SDS_P1;SDS_P2;PMS_P1;PMS_P2;Temp;Humidity;BMP_temperature;BMP_pressure;BME280_temperature;BME280_humidity;BME280_pressure;Samples;Min_cycle;Max_cycle;Signal;HPM_P1;HPM_P2
2024/02/02 00:01:38;;;;;;;25.08;3.92;;;;;;;7.95;80.86;102340.19;4953311;28;99250;-70
2024/02/02 00:04:04;;;;;;;26.30;3.33;;;;;;;8.11;79.55;102341.09;4948046;28;98461;-70
2024/02/02 00:06:31;;;;;;;33.00;4.10;;;;;;;7.82;80.50;102340.19;4947160;28;96792;-70
2024/02/02 00:08:58;;;;;;;21.25;3.08;;;;;;;7.97;80.48;102334.94;4947295;28;99195;-70
2024/02/02 00:11:25;;;;;;;21.90;3.28;;;;;;;8.06;79.81;102331.44;4951710;28;100620;-70
2024/02/02 00:13:51;;;;;;;27.52;3.20;;;;;;;7.92;80.59;102328.81;4950346;28;97490;-70
2024/02/02 00:16:17;;;;;;;20.45;3.33;;;;;;;8.01;79.74;102323.53;4944964;28;98672;-70
2024/02/02 00:18:44;;;;;;;23.88;2.97;;;;;;;7.95;80.28;102313.00;4945153;28;99145;-69
2024/02/02 00:21:10;;;;;;;20.55;3.45;;;;;;;7.68;82.22;102318.25;4946415;28;104077;-69
2024/02/02 00:23:36;;;;;;;24.23;3.33;;;;;;;8.00;81.02;102327.06;4948872;28;96765;-69
2024/02/02 00:26:04;;;;;;;27.27;3.45;;;;;;;8.45;78.44;102330.56;4950043;28;97370;-70
2024/02/02 00:28:31;;;;;;;21.00;2.90;;;;;;;8.56;77.80;102336.69;4946743;28;100106;-69
2024/02/02 00:30:57;;;;;;;30.27;3.72;;;;;;;8.43;78.29;102325.28;4945857;28;99628;-70
2024/02/02 00:33:24;;;;;;;28.98;3.20;;;;;;;8.20;78.76;102332.31;4946918;28;96925;-70
2024/02/02 00:35:50;;;;;;;27.45;4.55;;;;;;;8.03;80.41;102332.31;4948389;28;98001;-71
2024/02/02 00:38:17;;;;;;;28.30;3.75;;;;;;;8.10;80.19;102330.53;4946532;28;98864;-69
2024/02/02 00:40:44;;;;;;;32.80;4.38;;;;;;;8.01;80.25;102328.78;4946796;28;99083;-70
2024/02/02 00:43:12;;;;;;;23.08;3.05;;;;;;;8.00;80.54;102317.41;4947492;28;97275;-70
2024/02/02 00:45:38;;;;;;;27.48;3.58;;;;;;;8.12;80.23;102318.28;4948670;28;98059;-70
2024/02/02 00:48:06;;;;;;;30.70;5.03;;;;;;;8.06;80.52;102313.88;4945243;28;99096;-69
2024/02/02 00:50:32;;;;;;;29.70;4.35;;;;;;;7.88;81.43;102316.50;4943380;28;101145;-70
2024/02/02 00:52:58;;;;;;;26.88;3.03;;;;;;;7.33;83.84;102311.16;4944626;28;97078;-69
2024/02/02 00:55:25;;;;;;;22.10;3.38;;;;;;;7.01;85.68;102305.81;4949642;28;96852;-70
2024/02/02 00:57:51;;;;;;;17.42;3.10;;;;;;;6.95;86.72;102313.69;4947366;28;98707;-70
2024/02/02 01:00:19;;;;;;;14.82;2.25;;;;;;;7.10;86.50;102297.06;4948802;28;98774;-70
2024/02/02 01:02:46;;;;;;;33.08;3.15;;;;;;;6.96;87.54;102299.63;4945865;28;97612;-70
2024/02/02 01:05:13;;;;;;;23.17;3.38;;;;;;;7.02;87.47;102298.81;4944279;28;97933;-70
2024/02/02 01:07:40;;;;;;;34.78;3.95;;;;;;;7.22;86.47;102307.59;4950760;28;98804;-70
2024/02/02 01:10:10;;;;;;;25.15;3.38;;;;;;;7.34;85.58;102312.06;4945326;28;98776;-71
2024/02/02 01:12:37;;;;;;;27.45;4.95;;;;;;;7.16;86.89;102326.00;4945438;28;97001;-71
2024/02/02 01:15:03;;;;;;;21.85;2.90;;;;;;;7.51;85.06;102327.00;4951988;28;97409;-70
2024/02/02 01:17:31;;;;;;;34.63;3.30;;;;;;;7.47;85.14;102332.25;4948195;28;97770;-70
2024/02/02 01:20:01;;;;;;;25.30;5.57;;;;;;;7.88;82.74;102338.44;4948695;28;98838;-70
2024/02/02 01:22:27;;;;;;;34.38;3.58;;;;;;;7.83;82.97;102337.56;4945641;28;99073;-70
2024/02/02 01:24:54;;;;;;;25.00;3.30;;;;;;;7.84;82.75;102336.69;4946580;28;97033;-69
2024/02/02 01:27:20;;;;;;;24.90;4.10;;;;;;;7.37;85.16;102333.06;4948930;28;99049;-69
2024/02/02 01:29:46;;;;;;;27.25;3.90;;;;;;;7.33;86.18;102340.09;4943514;28;98684;-70
2024/02/02 01:32:13;;;;;;;27.60;4.25;;;;;;;7.56;85.01;102335.75;4950891;28;98044;-71
2024/02/02 01:34:41;;;;;;;26.40;3.97;;;;;;;7.52;85.25;102349.78;4953542;28;96773;-69
2024/02/02 01:37:07;;;;;;;21.73;3.08;;;;;;;7.45;85.88;102347.13;4952160;28;99256;-69
2024/02/02 01:39:34;;;;;;;37.00;6.18;;;;;;;7.63;84.85;102338.41;4949416;28;101140;-69
2024/02/02 01:42:00;;;;;;;23.33;3.50;;;;;;;7.67;84.91;102340.19;4950477;28;97303;-69
2024/02/02 01:44:27;;;;;;;33.00;4.63;;;;;;;7.53;85.54;102341.03;4950134;28;96846;-69
2024/02/02 01:46:53;;;;;;;31.60;4.53;;;;;;;7.67;85.21;102338.44;4950691;28;97435;-69
2024/02/02 01:49:20;;;;;;;23.73;3.63;;;;;;;7.27;86.37;102310.28;4947667;28;100836;-71
2024/02/02 01:51:48;;;;;;;31.63;4.05;;;;;;;6.90;88.33;102323.25;4945981;28;98686;-70
2024/02/02 01:54:14;;;;;;;24.95;3.47;;;;;;;7.04;88.81;102331.22;4949526;28;97205;-71
2024/02/02 01:56:41;;;;;;;34.00;4.28;;;;;;;7.14;88.23;102322.50;4951223;28;97892;-71
2024/02/02 01:59:08;;;;;;;25.45;4.22;;;;;;;7.23;87.26;102325.16;4948720;28;100502;-71
2024/02/02 02:01:34;;;;;;;23.98;3.17;;;;;;;7.42;86.78;102337.47;4948541;28;96846;-71
2024/02/02 02:04:01;;;;;;;24.42;3.88;;;;;;;7.53;85.89;102338.41;4951058;28;97525;-71
2024/02/02 02:06:28;;;;;;;27.58;3.70;;;;;;;7.70;85.17;102333.16;4952985;28;99173;-71
2024/02/02 02:08:56;;;;;;;33.38;4.78;;;;;;;7.82;83.80;102333.16;4949044;28;101638;-71
2024/02/02 02:11:22;;;;;;;25.48;3.90;;;;;;;7.52;85.76;102331.38;4947577;28;97247;-70
2024/02/02 02:13:49;;;;;;;34.60;3.95;;;;;;;7.33;86.49;102324.31;4948927;28;96811;-69
2024/02/02 02:16:15;;;;;;;22.90;3.50;;;;;;;7.59;85.23;102325.25;4947469;28;100925;-70
2024/02/02 02:18:42;;;;;;;32.97;4.47;;;;;;;7.71;84.09;102339.28;4947865;28;99060;-69
2024/02/02 02:21:23;;;;;;;24.40;3.58;;;;;;;7.50;85.34;102319.97;4946303;28;97482;-69
2024/02/02 02:23:49;;;;;;;31.15;4.13;;;;;;;7.67;85.13;102327.03;4950482;28;97881;-69
2024/02/02 02:26:16;;;;;;;35.20;4.22;;;;;;;7.87;83.80;102322.66;4947818;28;102195;-70
2024/02/02 02:28:42;;;;;;;25.77;4.15;;;;;;;8.31;81.77;102328.81;4946683;28;98840;-69
2024/02/02 02:31:11;;;;;;;28.63;4.28;;;;;;;8.21;82.10;102320.88;4946916;28;98872;-70
2024/02/02 02:33:37;;;;;;;31.08;3.85;;;;;;;8.28;81.53;102328.78;4946713;28;98225;-69
2024/02/02 02:36:04;;;;;;;30.70;4.72;;;;;;;8.07;82.13;102320.91;4945976;28;99264;-70
2024/02/02 02:38:32;;;;;;;27.25;4.78;;;;;;;7.82;83.27;102317.38;4945889;28;99452;-70
2024/02/02 02:40:58;;;;;;;26.20;3.67;;;;;;;7.93;83.26;102315.66;4946913;28;98420;-71
2024/02/02 02:43:25;;;;;;;35.25;4.22;;;;;;;8.08;82.36;102312.09;4946851;28;97517;-70
2024/02/02 02:45:51;;;;;;;32.10;4.55;;;;;;;8.12;82.53;102310.38;4946147;28;99002;-69
2024/02/02 02:48:18;;;;;;;26.33;4.18;;;;;;;8.16;81.94;102310.34;4945287;28;98753;-69
2024/02/02 02:50:44;;;;;;;22.27;3.65;;;;;;;8.29;81.61;102314.72;4946429;28;98900;-69
2024/02/02 02:53:10;;;;;;;20.55;2.95;;;;;;;8.06;81.24;102306.00;4944742;28;96859;-69
2024/02/02 02:55:39;;;;;;;22.40;3.83;;;;;;;7.81;83.92;102318.25;4948175;28;97894;-69
2024/02/02 02:58:05;;;;;;;35.05;5.22;;;;;;;7.58;84.75;102318.22;4947903;28;101655;-69
2024/02/02 03:00:31;;;;;;;23.42;3.53;;;;;;;7.73;84.94;102311.25;4945620;28;96924;-69
2024/02/02 03:02:58;;;;;;;29.83;5.35;;;;;;;7.77;84.60;102308.59;4947892;28;97297;-69
2024/02/02 03:05:26;;;;;;;26.50;4.03;;;;;;;7.22;86.25;102306.75;4950424;28;99116;-69
2024/02/02 03:07:53;;;;;;;28.75;3.70;;;;;;;7.22;87.87;102303.22;4946826;28;99148;-69
2024/02/02 03:10:21;;;;;;;25.27;4.55;;;;;;;7.38;87.13;102313.81;4949078;28;97161;-69
2024/02/02 03:12:48;;;;;;;30.00;3.95;;;;;;;7.78;85.62;102314.75;4947596;28;97037;-70
2024/02/02 03:15:15;;;;;;;31.27;4.32;;;;;;;8.05;83.59;102314.75;4948298;28;98885;-69
2024/02/02 03:17:41;;;;;;;21.67;3.17;;;;;;;7.92;84.02;102326.16;4952026;28;101825;-70
2024/02/02 03:20:11;;;;;;;26.90;5.75;;;;;;;7.95;84.42;102313.88;4947922;28;97895;-69
2024/02/02 03:22:38;;;;;;;36.67;4.88;;;;;;;7.76;85.00;102324.38;4944820;28;97271;-70
2024/02/02 03:25:05;;;;;;;18.40;3.42;;;;;;;7.86;84.60;102326.16;4949041;28;99690;-69
2024/02/02 03:27:32;;;;;;;34.13;4.47;;;;;;;8.20;82.68;102322.66;4952501;28;102771;-70
2024/02/02 03:29:59;;;;;;;32.40;4.35;;;;;;;8.09;82.48;102321.78;4939142;28;97050;-69
2024/02/02 03:32:26;;;;;;;27.25;4.72;;;;;;;8.35;82.30;102320.03;4947017;28;96787;-70
2024/02/02 03:34:52;;;;;;;27.35;4.03;;;;;;;7.57;84.47;102320.84;4949493;28;98192;-70
2024/02/02 03:37:20;;;;;;;26.35;4.85;;;;;;;7.38;87.07;102319.94;4949681;28;101389;-70
2024/02/02 03:39:46;;;;;;;32.42;6.00;;;;;;;7.92;85.24;102303.34;4945826;28;97289;-69
2024/02/02 03:42:13;;;;;;;31.98;4.55;;;;;;;7.90;84.59;102298.97;4945233;28;98747;-70
2024/02/02 03:44:39;;;;;;;28.13;4.43;;;;;;;8.12;83.68;102299.84;4951076;28;99295;-70
2024/02/02 03:47:07;;;;;;;25.33;4.43;;;;;;;7.54;85.79;102294.56;4948557;28;98524;-70
2024/02/02 03:49:34;;;;;;;37.88;6.30;;;;;;;7.47;86.59;102304.19;4942640;28;98915;-70
2024/02/02 03:52:00;;;;;;;24.35;3.97;;;;;;;7.27;88.14;102303.28;4942237;28;98693;-70
2024/02/02 03:54:27;;;;;;;31.83;5.43;;;;;;;7.32;87.49;102300.63;4942679;28;99165;-70
2024/02/02 03:56:53;;;;;;;25.92;4.75;;;;;;;7.09;88.70;102303.19;4947798;28;98097;-69
2024/02/02 03:59:20;;;;;;;33.65;5.47;;;;;;;7.45;87.36;102308.56;4943616;28;97651;-69
2024/02/02 04:01:46;;;;;;;28.65;5.57;;;;;;;7.54;87.07;102305.09;4945115;28;97024;-69
2024/02/02 04:04:14;;;;;;;26.45;5.32;;;;;;;7.48;87.04;102308.56;4946212;28;99045;-69
2024/02/02 04:06:40;;;;;;;40.67;6.95;;;;;;;7.61;86.03;102312.97;4946917;28;98249;-70
2024/02/02 04:09:08;;;;;;;32.38;5.47;;;;;;;7.48;86.39;102315.59;4944556;28;97345;-70
2024/02/02 04:11:35;;;;;;;35.67;6.00;;;;;;;7.90;84.37;102326.16;4945014;28;97907;-72
2024/02/02 04:14:02;;;;;;;29.15;5.72;;;;;;;7.88;84.11;102319.13;4949440;28;99333;-70
2024/02/02 04:16:28;;;;;;;25.05;5.45;;;;;;;7.75;84.56;102315.59;4948219;28;102357;-69
2024/02/02 04:18:54;;;;;;;37.25;6.30;;;;;;;8.14;83.08;102314.75;4948482;28;97282;-69
2024/02/02 04:21:22;;;;;;;22.00;4.93;;;;;;;7.77;83.33;102321.75;4949615;28;97882;-69
2024/02/02 04:23:48;;;;;;;35.92;5.78;;;;;;;7.65;84.47;102312.97;4946308;28;98858;-69
2024/02/02 04:26:15;;;;;;;30.05;5.70;;;;;;;7.76;85.04;102320.00;4948193;28;97511;-70
2024/02/02 04:28:41;;;;;;;24.10;5.63;;;;;;;7.74;84.43;102313.00;4942992;28;97803;-70
2024/02/02 04:31:08;;;;;;;29.20;4.95;;;;;;;7.29;86.38;102308.50;4949004;28;96768;-70
2024/02/02 04:33:34;;;;;;;28.65;4.95;;;;;;;7.55;85.98;102312.94;4946842;28;98778;-70
2024/02/02 04:36:00;;;;;;;30.20;6.63;;;;;;;7.84;84.47;102288.44;4946499;28;98126;-70
2024/02/02 04:38:28;;;;;;;20.15;4.65;;;;;;;7.96;82.97;102296.31;4945023;28;96801;-70
2024/02/02 04:40:54;;;;;;;20.73;5.03;;;;;;;8.39;81.24;102300.72;4945736;28;96793;-68
2024/02/02 04:43:21;;;;;;;23.90;4.70;;;;;;;7.94;82.17;102306.00;4949250;28;100782;-68
2024/02/02 04:45:47;;;;;;;23.42;5.25;;;;;;;7.73;84.24;102303.34;4949532;28;98860;-69
2024/02/02 04:48:14;;;;;;;24.25;5.30;;;;;;;7.74;83.88;102297.22;4947128;28;97176;-69
2024/02/02 04:50:40;;;;;;;24.17;4.97;;;;;;;7.70;84.21;102293.69;4944470;28;98014;-69
2024/02/02 04:53:08;;;;;;;38.97;5.97;;;;;;;7.84;83.75;102299.84;4951437;28;98934;-69
2024/02/02 04:55:36;;;;;;;25.35;5.15;;;;;;;7.44;85.25;102298.03;4947849;28;101550;-70
2024/02/02 04:58:03;;;;;;;34.78;5.50;;;;;;;7.48;85.93;102307.72;4948922;28;97327;-70
2024/02/02 05:00:30;;;;;;;31.98;4.95;;;;;;;7.75;84.80;102306.84;4949595;28;97177;-70
2024/02/02 05:02:56;;;;;;;21.92;4.90;;;;;;;7.99;83.22;102293.72;4949577;28;99102;-69
2024/02/02 05:05:22;;;;;;;33.45;5.65;;;;;;;7.87;83.19;102288.44;4954466;28;98919;-70
2024/02/02 05:07:49;;;;;;;35.50;6.60;;;;;;;8.00;82.81;102279.66;4949913;28;97499;-69
2024/02/02 05:10:15;;;;;;;30.63;5.57;;;;;;;8.14;81.73;102288.41;4950563;28;97286;-69
2024/02/02 05:12:43;;;;;;;26.70;5.50;;;;;;;7.90;82.79;102285.81;4951774;28;98993;-70
2024/02/02 05:15:10;;;;;;;20.38;4.13;;;;;;;8.05;82.74;102283.16;4952559;28;98869;-69
2024/02/02 05:17:36;;;;;;;23.35;5.00;;;;;;;8.09;82.09;102274.38;4950313;28;96760;-69
2024/02/02 05:20:04;;;;;;;28.42;5.25;;;;;;;7.99;82.22;102270.00;4946521;28;96993;-69
2024/02/02 05:22:31;;;;;;;27.20;6.47;;;;;;;8.04;82.08;102262.09;4948155;28;98837;-69
2024/02/02 05:24:57;;;;;;;27.92;5.25;;;;;;;7.96;82.41;102259.47;4946766;28;99609;-69
2024/02/02 05:27:23;;;;;;;31.70;4.97;;;;;;;8.17;81.68;102256.81;4950577;28;96807;-70
2024/02/02 05:29:52;;;;;;;18.17;4.32;;;;;;;8.03;81.81;102255.97;4948174;28;97903;-68
2024/02/02 05:32:18;;;;;;;33.25;4.88;;;;;;;8.05;82.20;102253.34;4949401;28;98169;-70
2024/02/02 05:34:45;;;;;;;35.80;5.13;;;;;;;8.10;82.53;102251.56;4950018;28;98990;-69
2024/02/02 05:37:11;;;;;;;21.05;4.57;;;;;;;7.98;82.00;102249.84;4950507;28;96675;-69
2024/02/02 05:39:38;;;;;;;25.95;4.47;;;;;;;7.70;83.51;102248.97;4950667;28;97176;-70
2024/02/02 05:42:04;;;;;;;14.55;4.32;;;;;;;7.68;83.18;102244.59;4945215;28;99113;-69
2024/02/02 05:44:31;;;;;;;22.42;4.25;;;;;;;7.97;81.89;102253.34;4944515;28;98918;-70
2024/02/02 05:46:59;;;;;;;22.23;4.70;;;;;;;7.87;83.23;102241.06;4952042;28;97611;-70
2024/02/02 05:49:25;;;;;;;26.83;4.82;;;;;;;7.59;84.47;102248.09;4952038;28;97150;-70
2024/02/02 05:51:52;;;;;;;23.73;3.95;;;;;;;7.63;84.53;102246.31;4946252;28;98996;-70
2024/02/02 05:54:21;;;;;;;28.38;4.53;;;;;;;7.75;84.05;102230.53;4949513;28;97425;-71
2024/02/02 05:56:48;;;;;;;18.95;3.30;;;;;;;7.85;83.04;102234.94;4945498;28;97204;-71
2024/02/02 05:59:14;;;;;;;18.50;3.95;;;;;;;7.59;84.96;102245.47;4946881;28;96966;-71
2024/02/02 06:01:41;;;;;;;21.92;4.75;;;;;;;7.79;84.46;102240.19;4948585;28;99192;-70
2024/02/02 06:04:09;;;;;;;21.23;4.85;;;;;;;8.04;83.09;102252.44;4948907;28;98274;-70
2024/02/02 06:06:36;;;;;;;30.13;5.72;;;;;;;8.29;81.58;102240.13;4955114;28;97584;-70
2024/02/02 06:09:05;;;;;;;21.60;3.72;;;;;;;8.20;81.28;102242.78;4950136;28;96789;-70
2024/02/02 06:11:32;;;;;;;26.40;4.22;;;;;;;8.22;81.90;102248.91;4944939;28;101591;-70
2024/02/02 06:13:58;;;;;;;24.23;3.92;;;;;;;8.37;80.85;102246.28;4951993;28;100936;-71
2024/02/02 06:16:25;;;;;;;30.60;4.80;;;;;;;8.25;81.28;102244.53;4948717;28;98610;-71
2024/02/02 06:18:52;;;;;;;26.83;4.28;;;;;;;8.19;81.84;102254.19;4944586;28;100084;-69
2024/02/02 06:21:20;;;;;;;34.25;4.88;;;;;;;8.25;81.50;102249.78;4946064;28;99947;-72
2024/02/02 06:23:46;;;;;;;29.45;5.00;;;;;;;7.95;82.87;102250.69;4945962;28;99375;-70
2024/02/02 06:26:12;;;;;;;26.58;4.70;;;;;;;8.04;82.84;102251.56;4951195;28;96935;-69
2024/02/02 06:28:39;;;;;;;23.58;4.80;;;;;;;8.29;81.94;102254.16;4947294;28;97692;-69
2024/02/02 06:31:05;;;;;;;20.88;4.10;;;;;;;8.35;81.08;102253.31;4949275;28;97598;-70
2024/02/02 06:33:32;;;;;;;19.70;4.28;;;;;;;8.41;81.25;102255.91;4946650;28;97550;-69
2024/02/02 06:35:58;;;;;;;25.20;4.10;;;;;;;7.98;82.34;102257.72;4944096;28;97211;-69
2024/02/02 06:38:26;;;;;;;25.27;5.78;;;;;;;8.13;82.32;102252.44;4946391;28;97216;-69
2024/02/02 06:40:52;;;;;;;23.92;4.80;;;;;;;8.31;82.04;102248.94;4943256;28;99052;-69
2024/02/02 06:43:19;;;;;;;24.35;4.32;;;;;;;8.68;80.33;102250.56;4943129;28;98347;-72
2024/02/02 06:45:45;;;;;;;35.00;4.75;;;;;;;8.69;79.47;102243.53;4944415;28;97232;-68
2024/02/02 06:48:13;;;;;;;21.05;4.15;;;;;;;8.75;78.73;102246.13;4939888;28;99015;-70
2024/02/02 06:50:39;;;;;;;26.08;4.53;;;;;;;8.86;78.74;102249.59;4938639;28;98876;-71
2024/02/02 06:53:07;;;;;;;16.73;3.47;;;;;;;8.52;79.28;102237.47;4946566;28;99240;-70
2024/02/02 06:55:35;;;;;;;23.20;4.95;;;;;;;8.45;80.51;102247.16;4942245;28;97340;-70
2024/02/02 06:58:02;;;;;;;28.40;4.50;;;;;;;8.00;82.02;102229.66;4944320;28;96955;-71
2024/02/02 07:00:32;;;;;;;28.83;4.78;;;;;;;8.45;81.04;102241.00;4945131;28;101892;-71
2024/02/02 07:02:59;;;;;;;19.02;3.63;;;;;;;8.01;81.97;102224.38;4941204;28;102245;-70
2024/02/02 07:05:26;;;;;;;24.73;4.28;;;;;;;7.93;82.75;102212.13;4944100;28;96933;-70
2024/02/02 07:07:52;;;;;;;25.77;5.00;;;;;;;8.24;82.13;102211.16;4943118;28;97372;-70
2024/02/02 07:10:21;;;;;;;25.00;4.55;;;;;;;8.32;81.36;102208.56;4945067;28;99253;-72
2024/02/02 07:12:54;;;;;;;20.65;4.63;;;;;;;8.68;79.59;102203.13;4945057;28;98986;-71
2024/02/02 07:15:22;;;;;;;25.77;4.80;;;;;;;8.26;80.64;102201.50;4944942;28;102668;-70
2024/02/02 07:17:50;;;;;;;20.42;3.83;;;;;;;8.33;80.53;102205.91;4940877;28;99728;-70
2024/02/02 07:20:44;;;;;;;30.45;4.70;;;;;;;7.82;82.53;102209.47;4935357;28;98277;-70
2024/02/02 07:23:12;;;;;;;24.85;5.05;;;;;;;7.86;83.02;102198.09;4946081;28;97778;-70
2024/02/02 07:25:40;;;;;;;27.95;4.68;;;;;;;7.76;83.41;102190.19;4944608;28;97490;-69
2024/02/02 07:28:24;;;;;;;22.08;3.70;;;;;;;8.16;82.12;102191.00;4945153;28;98270;-68
2024/02/02 07:30:54;;;;;;;24.55;3.42;;;;;;;8.17;81.61;102196.25;4943250;28;98001;-69
2024/02/02 07:33:34;;;;;;;18.23;2.90;;;;;;;7.97;81.41;102191.03;4947161;28;99422;-72
2024/02/02 07:36:01;;;;;;;25.80;4.72;;;;;;;8.14;81.30;102180.44;4949261;28;97962;-70
2024/02/02 07:38:43;;;;;;;32.88;5.22;;;;;;;7.90;82.57;102184.03;4947330;28;96891;-70
2024/02/02 07:41:12;;;;;;;28.73;4.07;;;;;;;8.16;81.26;102178.69;4941543;28;99276;-71
2024/02/02 07:43:40;;;;;;;26.83;4.32;;;;;;;8.04;81.24;102170.84;4942709;28;100916;-70
2024/02/02 07:46:07;;;;;;;18.33;3.80;;;;;;;7.44;84.20;102169.16;4934135;28;99889;-71
2024/02/02 07:48:34;;;;;;;23.50;4.03;;;;;;;7.40;84.45;102168.31;4938208;28;98636;-71
2024/02/02 07:51:01;;;;;;;30.90;5.30;;;;;;;7.77;83.59;102160.38;4937333;28;99120;-71
2024/02/02 07:53:27;;;;;;;21.83;4.25;;;;;;;8.05;82.08;102156.81;4941803;28;102403;-71
2024/02/02 07:55:53;;;;;;;28.38;4.85;;;;;;;8.10;81.36;102160.28;4945771;28;96759;-71
2024/02/02 07:58:21;;;;;;;21.77;3.53;;;;;;;8.29;80.13;102156.72;4950376;28;97521;-70
2024/02/02 08:00:49;;;;;;;27.92;4.93;;;;;;;8.50;79.16;102157.53;4944533;28;98899;-70
2024/02/02 08:03:15;;;;;;;18.88;4.85;;;;;;;7.91;81.56;102156.84;4941143;28;98784;-70
2024/02/02 08:05:42;;;;;;;26.85;4.60;;;;;;;7.92;81.16;102158.59;4947288;28;98354;-70
2024/02/02 08:08:09;;;;;;;26.48;4.43;;;;;;;8.20;80.69;102161.16;4941485;28;98411;-70
2024/02/02 08:10:35;;;;;;;22.45;3.92;;;;;;;8.25;79.67;102170.78;4942988;28;99266;-70
2024/02/02 08:13:02;;;;;;;22.08;4.63;;;;;;;7.98;81.29;102171.75;4944502;28;98872;-70
2024/02/02 08:15:28;;;;;;;23.38;5.38;;;;;;;7.99;80.95;102164.72;4946678;28;98309;-70
2024/02/02 08:17:56;;;;;;;23.38;5.00;;;;;;;7.96;81.11;102169.97;4948070;28;98012;-71
2024/02/02 08:20:22;;;;;;;23.23;5.00;;;;;;;7.78;81.54;102154.22;4942353;28;99173;-70
2024/02/02 08:22:49;;;;;;;27.77;4.40;;;;;;;8.15;80.81;102150.63;4943176;28;97311;-70
2024/02/02 08:25:16;;;;;;;17.73;4.68;;;;;;;8.05;80.56;102154.16;4941477;28;98504;-70
2024/02/02 08:27:42;;;;;;;19.77;5.32;;;;;;;8.29;79.64;102150.56;4941963;28;97760;-70
2024/02/02 08:30:10;;;;;;;20.60;4.25;;;;;;;8.37;78.43;102151.47;4943093;28;99292;-70
2024/02/02 08:32:37;;;;;;;30.13;5.20;;;;;;;8.59;77.28;102142.59;4944240;28;98754;-70
2024/02/02 08:35:06;;;;;;;23.30;5.70;;;;;;;8.48;78.63;102138.22;4946201;28;97289;-70
2024/02/02 08:37:35;;;;;;;30.20;4.90;;;;;;;8.64;77.23;102140.78;4950884;28;97299;-70
2024/02/02 08:40:02;;;;;;;18.92;3.63;;;;;;;8.17;78.87;102135.69;4945525;28;101724;-70
2024/02/02 08:42:28;;;;;;;19.10;5.10;;;;;;;8.79;76.58;102140.69;4938542;28;99461;-70
2024/02/02 08:44:56;;;;;;;25.77;5.60;;;;;;;9.22;74.93;102139.53;4944041;28;97730;-70
2024/02/02 08:47:23;;;;;;;24.05;5.50;;;;;;;9.10;74.02;102135.22;4942138;28;98726;-70
2024/02/02 08:49:55;;;;;;;22.45;4.50;;;;;;;8.82;75.02;102134.53;4939931;28;98851;-70
2024/02/02 08:52:31;;;;;;;26.45;4.88;;;;;;;8.80;75.48;102123.09;4944943;28;102263;-70
2024/02/02 08:54:58;;;;;;;22.70;4.75;;;;;;;9.05;74.66;102108.03;4943679;28;98314;-70
2024/02/02 08:58:04;;;;;;;23.38;5.13;;;;;;;8.76;74.59;102116.13;4945079;28;99550;-70
2024/02/02 09:00:38;;;;;;;21.52;5.28;;;;;;;8.66;75.53;102127.63;4944886;28;101562;-78
2024/02/02 09:03:33;;;;;;;23.75;6.53;;;;;;;8.62;76.47;102124.09;4949242;28;98819;-79
2024/02/02 09:06:02;;;;;;;18.75;5.57;;;;;;;8.88;74.96;102120.44;4943511;28;99460;-78
2024/02/02 09:08:33;;;;;;;23.50;5.90;;;;;;;9.27;73.00;102104.31;4949375;28;97367;-78
2024/02/02 09:11:24;;;;;;;28.92;5.95;;;;;;;8.93;74.23;102098.41;4948694;28;99031;-78
2024/02/02 09:14:01;;;;;;;23.30;6.40;;;;;;;8.87;73.92;102087.03;4947161;28;98775;-78
2024/02/02 09:16:38;;;;;;;28.38;7.35;;;;;;;8.58;74.66;102084.63;4944215;28;96906;-78
2024/02/02 09:19:20;;;;;;;22.27;6.45;;;;;;;8.91;74.14;102100.22;4941059;28;96851;-79
2024/02/02 09:21:47;;;;;;;25.90;6.18;;;;;;;8.83;74.26;102095.88;4945827;28;99398;-77
2024/02/02 09:24:27;;;;;;;25.60;6.53;;;;;;;9.18;72.74;102104.41;4942571;28;97501;-78
2024/02/02 09:26:55;;;;;;;24.27;6.18;;;;;;;9.03;74.15;102094.84;4938757;28;98841;-79
2024/02/02 09:29:22;;;;;;;23.70;6.55;;;;;;;9.25;73.61;102105.22;4941898;28;96906;-78
2024/02/02 09:31:49;;;;;;;24.52;7.05;;;;;;;8.73;75.43;102105.59;4945409;28;100153;-79
2024/02/02 09:34:24;;;;;;;24.55;7.32;;;;;;;8.75;76.95;102098.56;4941652;28;98759;-79
2024/02/02 09:36:53;;;;;;;22.45;6.75;;;;;;;8.10;79.69;102109.41;4942905;28;96901;-79
2024/02/02 09:39:53;;;;;;;23.98;6.15;;;;;;;8.58;78.33;102093.41;4942305;28;98122;-77
2024/02/02 09:42:41;;;;;;;23.40;6.15;;;;;;;8.34;79.11;102081.22;4944080;28;100874;-78
2024/02/02 09:45:12;;;;;;;29.45;7.20;;;;;;;8.60;77.75;102064.41;4948553;28;100011;-79
2024/02/02 09:47:54;;;;;;;19.52;6.55;;;;;;;8.75;77.54;102066.94;4942181;28;98729;-75
2024/02/02 09:50:33;;;;;;;32.72;6.97;;;;;;;8.83;77.26;102058.97;4945657;28;97041;-77
2024/02/02 09:53:34;;;;;;;22.85;6.03;;;;;;;9.44;75.26;102065.47;4946934;28;99070;-78
2024/02/02 09:56:11;;;;;;;27.73;7.05;;;;;;;9.40;75.05;102057.56;4945551;28;98956;-77
2024/02/02 09:58:46;;;;;;;29.02;5.85;;;;;;;8.99;76.46;102060.63;4946966;28;98376;-77
2024/02/02 10:01:26;;;;;;;21.10;5.47;;;;;;;8.80;77.05;102068.63;4945645;28;97677;-76
2024/02/02 10:04:02;;;;;;;19.00;5.03;;;;;;;8.83;77.63;102073.03;4943940;28;99035;-78
2024/02/02 10:06:50;;;;;;;21.33;6.03;;;;;;;8.87;77.53;102071.22;4945097;28;98816;-77
2024/02/02 10:09:36;;;;;;;22.38;5.63;;;;;;;8.57;77.90;102069.69;4942531;28;97221;-79
2024/02/02 10:12:17;;;;;;;22.20;5.87;;;;;;;8.83;77.04;102062.47;4941477;28;97380;-77
2024/02/02 10:15:16;;;;;;;24.60;5.63;;;;;;;8.82;76.83;102073.03;4947857;28;99504;-78
2024/02/02 10:17:58;;;;;;;20.85;6.07;;;;;;;8.67;77.50;102052.91;4947030;28;101725;-78
2024/02/02 10:20:37;;;;;;;15.50;4.15;;;;;;;8.56;77.86;102052.13;4946201;28;97245;-79
2024/02/02 10:23:26;;;;;;;16.75;4.57;;;;;;;8.65;77.46;102044.19;4947089;28;97200;-78
2024/02/02 10:26:06;;;;;;;16.05;4.22;;;;;;;9.24;75.22;102029.63;4944264;28;98907;-77
2024/02/02 10:28:46;;;;;;;12.63;4.05;;;;;;;8.99;75.68;102005.25;4941803;28;98959;-78
2024/02/02 10:31:33;;;;;;;14.50;4.35;;;;;;;9.74;72.94;102008.81;4947876;28;96942;-78
2024/02/02 10:34:16;;;;;;;21.42;4.40;;;;;;;9.49;72.38;101996.81;4947235;28;97090;-78
2024/02/02 10:36:55;;;;;;;19.83;4.45;;;;;;;9.67;71.74;102015.06;4946942;28;102071;-79
2024/02/02 10:39:35;;;;;;;16.83;3.58;;;;;;;9.40;72.47;102004.81;4941175;28;98813;-77
2024/02/02 10:42:14;;;;;;;15.68;4.50;;;;;;;9.53;72.37;102012.59;4946785;28;97258;-78
2024/02/02 10:44:51;;;;;;;11.38;3.22;;;;;;;9.53;72.03;102009.94;4948595;28;97167;-78
2024/02/02 10:47:31;;;;;;;15.70;3.83;;;;;;;9.54;71.92;102001.16;4949065;28;99025;-79
2024/02/02 10:50:08;;;;;;;15.43;2.80;;;;;;;9.95;70.43;101995.38;4947482;28;98998;-80
2024/02/02 10:52:46;;;;;;;15.95;2.97;;;;;;;10.34;67.78;101998.38;4946142;28;97275;-79
2024/02/02 10:55:33;;;;;;;16.60;3.53;;;;;;;10.12;67.77;101995.13;4948011;28;97004;-78
2024/02/02 10:58:10;;;;;;;10.63;3.30;;;;;;;10.31;67.19;101987.84;4947610;28;101133;-78
2024/02/02 11:00:43;;;;;;;19.45;3.40;;;;;;;10.42;67.21;101983.28;4945024;28;98805;-78
2024/02/02 11:03:22;;;;;;;11.98;3.25;;;;;;;10.30;66.21;101978.19;4945073;28;97099;-79
2024/02/02 11:05:57;;;;;;;11.50;2.80;;;;;;;10.62;66.18;101967.13;4941552;28;97461;-79
2024/02/02 11:08:28;;;;;;;16.23;3.22;;;;;;;10.48;65.58;101958.53;4946384;28;101900;-80
2024/02/02 11:11:00;;;;;;;10.20;2.35;;;;;;;9.71;67.59;101964.00;4945374;28;98733;-78
2024/02/02 11:13:34;;;;;;;10.60;2.85;;;;;;;10.06;67.10;101954.72;4946286;28;96845;-78
2024/02/02 11:16:15;;;;;;;13.35;3.00;;;;;;;9.93;67.20;101952.25;4947819;28;96811;-77
2024/02/02 11:19:06;;;;;;;11.20;3.30;;;;;;;9.58;67.99;101934.22;4946026;28;98911;-77
2024/02/02 11:21:48;;;;;;;13.45;2.55;;;;;;;9.82;67.81;101929.53;4942813;28;99018;-78
2024/02/02 11:24:22;;;;;;;10.88;2.72;;;;;;;10.30;65.55;101930.63;4936623;28;98488;-78
2024/02/02 11:27:00;;;;;;;15.30;3.22;;;;;;;10.16;66.49;101929.94;4945656;28;99719;-77
2024/02/02 11:29:37;;;;;;;17.45;3.30;;;;;;;10.54;64.49;101913.50;4942466;28;98572;-79
2024/02/02 11:32:25;;;;;;;15.65;3.10;;;;;;;9.87;66.70;101911.88;4947173;28;99329;-79
2024/02/02 11:34:57;;;;;;;18.25;3.13;;;;;;;9.77;67.15;101911.13;4944218;28;97608;-78
2024/02/02 11:37:35;;;;;;;15.77;3.45;;;;;;;9.99;66.90;101896.72;4946266;28;98119;-78